Time;durP1;ratioP1;P1;durP2;ratioP2;P2;SDS_P1;SDS_P2;PMS_P1;PMS_P2;Temp;Humidity;BMP_temperature;BMP_pressure;BME280_temperature;BME280_humidity;BME280_pressure;Samples;Min_cycle;Max_cycle;Signal;HPM_P1;HPM_P2
2024/02/21 00:01:16;;;;;;;4.60;2.60;;;5.30;99.90;;;;;;5011967;28;20209;-74
2024/02/21 00:03:43;;;;;;;4.50;2.92;;;5.30;99.90;;;;;;5012162;28;20225;-73
2024/02/21 00:06:10;;;;;;;8.18;2.80;;;5.30;99.90;;;;;;5011935;28;20210;-74
2024/02/21 00:08:36;;;;;;;2.25;2.05;;;5.30;99.90;;;;;;5011519;28;20694;-74
2024/02/21 00:11:04;;;;;;;4.38;2.20;;;5.30;99.90;;;;;;5011801;28;20213;-74
2024/02/21 00:13:31;;;;;;;4.43;3.55;;;5.30;99.90;;;;;;5011673;28;20226;-74
2024/02/21 00:15:58;;;;;;;6.75;2.38;;;5.30;99.90;;;;;;5011920;28;20212;-73
2024/02/21 00:18:25;;;;;;;4.70;2.97;;;5.30;99.90;;;;;;5011013;28;20672;-74
2024/02/21 00:20:50;;;;;;;5.15;2.75;;;5.30;99.90;;;;;;5011826;28;20210;-73
2024/02/21 00:23:17;;;;;;;3.30;2.63;;;5.30;99.90;;;;;;5011386;28;20228;-73
2024/02/21 00:25:44;;;;;;;4.90;2.50;;;5.30;99.90;;;;;;5011721;28;20211;-73
2024/02/21 00:28:12;;;;;;;2.50;2.30;;;5.30;99.90;;;;;;5010949;28;20209;-73
2024/02/21 00:30:39;;;;;;;8.32;2.08;;;5.30;99.90;;;;;;5011578;28;20216;-74
2024/02/21 00:33:06;;;;;;;2.45;2.17;;;5.30;99.90;;;;;;5011203;28;20236;-74
2024/02/21 00:35:33;;;;;;;5.18;2.10;;;5.30;99.90;;;;;;5011477;28;20217;-74
2024/02/21 00:37:59;;;;;;;3.15;2.10;;;5.30;99.90;;;;;;5011028;28;20259;-73
2024/02/21 00:40:26;;;;;;;4.07;2.15;;;5.40;99.90;;;;;;5011208;28;20222;-74
2024/02/21 00:42:52;;;;;;;3.67;2.10;;;5.40;99.90;;;;;;5011554;28;20217;-74
2024/02/21 00:45:20;;;;;;;9.70;2.73;;;5.40;99.90;;;;;;5011317;28;20206;-74
2024/02/21 00:47:47;;;;;;;2.58;2.00;;;5.40;99.90;;;;;;5010963;28;20214;-74
2024/02/21 00:50:13;;;;;;;4.13;2.35;;;5.50;99.90;;;;;;5010529;28;20213;-74
2024/02/21 00:52:39;;;;;;;6.00;2.30;;;5.50;99.90;;;;;;5011117;28;20229;-74
2024/02/21 00:55:07;;;;;;;3.23;2.17;;;5.50;99.90;;;;;;5011308;28;20805;-74
2024/02/21 00:57:34;;;;;;;2.72;2.38;;;5.50;99.90;;;;;;5010526;28;20208;-74
2024/02/21 01:00:00;;;;;;;3.67;2.30;;;5.50;99.90;;;;;;5011029;28;20232;-74
2024/02/21 01:02:31;;;;;;;3.75;1.80;;;5.50;99.90;;;;;;5010867;28;20207;-74
2024/02/21 01:04:57;;;;;;;2.80;1.98;;;5.50;99.90;;;;;;5011248;28;20234;-74
2024/02/21 01:07:24;;;;;;;3.72;2.45;;;5.50;99.90;;;;;;5009743;28;20293;-74
2024/02/21 01:09:51;;;;;;;4.20;2.00;;;5.50;99.90;;;;;;5011057;28;20256;-74
2024/02/21 01:12:18;;;;;;;4.80;2.30;;;5.60;99.90;;;;;;5010742;28;20238;-74
2024/02/21 01:14:45;;;;;;;4.18;2.42;;;5.50;99.90;;;;;;5011047;28;20735;-74
2024/02/21 01:17:12;;;;;;;2.60;2.25;;;5.50;99.90;;;;;;5010727;28;20211;-74
2024/02/21 01:19:40;;;;;;;2.22;1.75;;;5.50;99.90;;;;;;5010774;28;20203;-74
2024/02/21 01:22:07;;;;;;;4.60;2.30;;;5.50;99.90;;;;;;5011019;28;20604;-74
2024/02/21 01:24:34;;;;;;;9.18;3.15;;;5.50;99.90;;;;;;5010829;28;20589;-74
2024/02/21 01:27:01;;;;;;;1.85;1.60;;;5.50;99.90;;;;;;5010903;28;20683;-74
2024/02/21 01:29:27;;;;;;;6.57;2.63;;;5.50;99.90;;;;;;5010061;28;20210;-74
2024/02/21 01:31:54;;;;;;;2.13;1.80;;;5.50;99.90;;;;;;5010979;28;20215;-74
2024/02/21 01:34:21;;;;;;;8.75;2.30;;;5.50;99.90;;;;;;5010416;28;20233;-74
2024/02/21 01:36:49;;;;;;;2.97;2.15;;;5.40;99.90;;;;;;5010982;28;20230;-74
2024/02/21 01:39:16;;;;;;;2.35;2.10;;;5.40;99.90;;;;;;5009817;28;20222;-74
2024/02/21 01:41:42;;;;;;;4.10;2.28;;;5.40;99.90;;;;;;5010987;28;20213;-74
2024/02/21 01:44:09;;;;;;;7.38;2.80;;;5.40;99.90;;;;;;5010686;28;20248;-74
2024/02/21 01:46:36;;;;;;;3.75;1.88;;;5.50;99.90;;;;;;5010480;28;20210;-74
2024/02/21 01:49:04;;;;;;;3.88;1.90;;;5.50;99.90;;;;;;5010116;28;20730;-74
2024/02/21 01:51:32;;;;;;;3.92;2.05;;;5.40;99.90;;;;;;5010389;28;20305;-74
2024/02/21 01:54:00;;;;;;;3.28;1.90;;;5.40;99.90;;;;;;5010501;28;20230;-74
2024/02/21 01:56:27;;;;;;;3.05;2.28;;;5.50;99.90;;;;;;5010478;28;20234;-74
2024/02/21 01:58:54;;;;;;;3.33;2.38;;;5.50;99.90;;;;;;5010246;28;20211;-74
2024/02/21 02:01:21;;;;;;;4.28;2.30;;;5.50;99.90;;;;;;5011638;28;20206;-74
2024/02/21 02:03:48;;;;;;;2.38;2.03;;;5.50;99.90;;;;;;5014426;28;20232;-74
2024/02/21 02:06:15;;;;;;;2.25;1.88;;;5.50;99.90;;;;;;5014210;28;20217;-74
2024/02/21 02:08:43;;;;;;;5.65;1.80;;;5.50;99.90;;;;;;5013824;28;20584;-74
2024/02/21 02:11:14;;;;;;;3.92;2.05;;;5.50;99.90;;;;;;5014227;28;20235;-74
2024/02/21 02:13:40;;;;;;;7.88;1.58;;;5.50;99.90;;;;;;5008370;28;20873;-74
2024/02/21 02:16:07;;;;;;;2.20;1.67;;;5.50;99.90;;;;;;5014037;28;20216;-74
2024/02/21 02:18:34;;;;;;;5.30;2.50;;;5.50;99.90;;;;;;5013337;28;20215;-74
2024/02/21 02:21:01;;;;;;;2.20;1.75;;;5.50;99.90;;;;;;5014014;28;20206;-74
2024/02/21 02:23:30;;;;;;;7.68;2.38;;;5.50;99.90;;;;;;5013645;28;20229;-74
2024/02/21 02:25:56;;;;;;;2.67;2.28;;;5.40;99.90;;;;;;5014301;28;20705;-74
2024/02/21 02:28:24;;;;;;;6.35;2.83;;;5.40;99.90;;;;;;5013586;28;20217;-74
2024/02/21 02:30:51;;;;;;;2.95;1.95;;;5.40;99.90;;;;;;5014105;28;20260;-74
2024/02/21 02:33:18;;;;;;;5.30;2.38;;;5.50;99.90;;;;;;5013398;28;20234;-74
2024/02/21 02:35:45;;;;;;;3.75;1.98;;;5.40;99.90;;;;;;5013686;28;20211;-74
2024/02/21 02:38:13;;;;;;;3.15;2.10;;;5.50;99.90;;;;;;5013232;28;20236;-74
2024/02/21 02:40:41;;;;;;;4.75;2.30;;;5.40;99.90;;;;;;5013376;28;20228;-74
2024/02/21 02:43:08;;;;;;;3.65;1.80;;;5.50;99.90;;;;;;5013548;28;20295;-74
2024/02/21 02:45:35;;;;;;;1.75;1.65;;;5.50;99.90;;;;;;5013450;28;20218;-74
2024/02/21 02:48:01;;;;;;;3.65;1.83;;;5.50;99.90;;;;;;5013145;28;20207;-74
2024/02/21 02:50:29;;;;;;;2.40;2.22;;;5.50;99.90;;;;;;5013173;28;20214;-74
2024/02/21 02:52:56;;;;;;;2.22;1.60;;;5.50;99.90;;;;;;5013460;28;20220;-74
2024/02/21 02:55:23;;;;;;;3.05;2.50;;;5.50;99.90;;;;;;5013132;28;20213;-74
2024/02/21 02:57:51;;;;;;;3.10;2.80;;;5.50;99.90;;;;;;5013019;28;20244;-74
2024/02/21 03:00:18;;;;;;;2.65;2.40;;;5.50;99.90;;;;;;5013248;28;20218;-74
2024/02/21 03:02:47;;;;;;;4.20;2.55;;;5.50;99.90;;;;;;5008038;28;20218;-74
2024/02/21 03:05:15;;;;;;;3.03;2.38;;;5.50;99.90;;;;;;5013300;28;20731;-74
2024/02/21 03:07:42;;;;;;;3.67;2.10;;;5.50;99.90;;;;;;5012599;28;20264;-74
2024/02/21 03:10:10;;;;;;;3.05;1.88;;;5.50;99.90;;;;;;5013163;28;20210;-74
2024/02/21 03:12:36;;;;;;;7.85;2.97;;;5.50;99.90;;;;;;5011846;28;20213;-74
2024/02/21 03:15:06;;;;;;;3.63;2.22;;;5.50;99.90;;;;;;5012992;28;20223;-74
2024/02/21 03:17:34;;;;;;;2.03;1.90;;;5.50;99.90;;;;;;5012424;28;20287;-74
2024/02/21 03:20:00;;;;;;;9.60;2.60;;;5.40;99.90;;;;;;5013046;28;20209;-74
2024/02/21 03:22:27;;;;;;;2.10;1.55;;;5.40;99.90;;;;;;5012757;28;20210;-74
2024/02/21 03:24:54;;;;;;;2.47;2.22;;;5.40;99.90;;;;;;5013004;28;20226;-74
2024/02/21 03:27:21;;;;;;;4.10;2.35;;;5.40;99.90;;;;;;5012580;28;20216;-74
2024/02/21 03:29:48;;;;;;;2.60;1.85;;;5.40;99.90;;;;;;5007816;28;20206;-74
2024/02/21 03:32:16;;;;;;;2.58;1.60;;;5.40;99.90;;;;;;5012750;28;20216;-74
2024/02/21 03:34:42;;;;;;;2.90;2.13;;;5.40;99.90;;;;;;5012223;28;20264;-74
2024/02/21 03:37:09;;;;;;;2.35;1.63;;;5.40;99.90;;;;;;5012568;28;20217;-74
2024/02/21 03:39:36;;;;;;;3.53;1.80;;;5.50;99.90;;;;;;5011683;28;20237;-74
2024/02/21 03:42:04;;;;;;;2.50;1.60;;;5.50;99.90;;;;;;5012454;28;20217;-74
2024/02/21 03:44:31;;;;;;;2.80;2.40;;;5.50;99.90;;;;;;5012100;28;20233;-74
2024/02/21 03:46:58;;;;;;;5.90;1.95;;;5.50;99.90;;;;;;5012364;28;20214;-74
2024/02/21 03:49:26;;;;;;;5.10;2.22;;;5.50;99.90;;;;;;5008237;28;20218;-74
2024/02/21 03:51:53;;;;;;;2.30;1.80;;;5.50;99.90;;;;;;5012179;28;20214;-74
2024/02/21 03:54:20;;;;;;;3.17;2.35;;;5.50;99.90;;;;;;5011945;28;20607;-74
2024/02/21 03:56:47;;;;;;;2.53;1.80;;;5.50;99.90;;;;;;5011944;28;20209;-74
2024/02/21 03:59:14;;;;;;;2.88;2.13;;;5.50;99.90;;;;;;5011398;28;20269;-74
2024/02/21 04:01:41;;;;;;;2.03;1.52;;;5.40;99.90;;;;;;5011841;28;20683;-74
2024/02/21 04:04:07;;;;;;;5.38;2.35;;;5.40;99.90;;;;;;5012017;28;20229;-74
2024/02/21 04:06:36;;;;;;;2.55;1.90;;;5.40;99.90;;;;;;5011914;28;20694;-74
2024/02/21 04:09:03;;;;;;;5.43;2.30;;;5.40;99.90;;;;;;5011520;28;20212;-74
2024/02/21 04:11:30;;;;;;;5.03;1.92;;;5.40;99.90;;;;;;5011881;28;20214;-74
2024/02/21 04:13:56;;;;;;;3.60;1.77;;;5.40;99.90;;;;;;5011811;28;20233;-74
2024/02/21 04:16:23;;;;;;;2.85;2.55;;;5.40;99.90;;;;;;5008046;28;20212;-74
2024/02/21 04:18:50;;;;;;;3.40;2.50;;;5.30;99.90;;;;;;5010966;28;21022;-74
2024/02/21 04:21:17;;;;;;;1.95;1.63;;;5.30;99.90;;;;;;5011591;28;20218;-74
2024/02/21 04:23:45;;;;;;;1.90;1.70;;;5.30;99.90;;;;;;5008654;28;20600;-74
2024/02/21 04:26:12;;;;;;;4.20;1.90;;;5.30;99.90;;;;;;5009231;28;20205;-75
2024/02/21 04:28:39;;;;;;;2.63;1.67;;;5.30;99.90;;;;;;5004256;28;20733;-75
2024/02/21 04:31:06;;;;;;;2.30;2.10;;;5.20;99.90;;;;;;5004180;28;20211;-75
2024/02/21 04:33:33;;;;;;;7.68;1.95;;;5.20;99.90;;;;;;5005581;28;20232;-75
2024/02/21 04:36:00;;;;;;;2.95;1.95;;;5.20;99.90;;;;;;5003188;28;20210;-76
2024/02/21 04:38:28;;;;;;;2.85;1.63;;;5.20;99.90;;;;;;5005385;28;20283;-75
2024/02/21 04:40:58;;;;;;;4.55;2.30;;;5.20;99.90;;;;;;5009481;28;20697;-75
2024/02/21 04:43:25;;;;;;;2.20;1.95;;;5.20;99.90;;;;;;5005990;28;20237;-75
2024/02/21 04:45:53;;;;;;;5.22;1.60;;;5.20;99.90;;;;;;5009691;28;20210;-75
2024/02/21 04:48:20;;;;;;;2.15;1.83;;;5.10;99.90;;;;;;5008869;28;20659;-75
2024/02/21 04:50:46;;;;;;;2.03;1.83;;;5.10;99.90;;;;;;5008156;28;20217;-75
2024/02/21 04:53:13;;;;;;;2.53;2.17;;;5.10;99.90;;;;;;5006456;28;20237;-75
2024/02/21 04:55:40;;;;;;;3.15;1.60;;;5.10;99.90;;;;;;5004512;28;20224;-75
2024/02/21 04:58:09;;;;;;;6.07;2.78;;;5.10;99.90;;;;;;5003402;28;20203;-75
2024/02/21 05:00:35;;;;;;;2.95;1.60;;;5.10;99.90;;;;;;5005136;28;20679;-75
2024/02/21 05:03:02;;;;;;;3.15;2.28;;;5.10;99.90;;;;;;5007559;28;20225;-75
2024/02/21 05:05:29;;;;;;;2.25;1.85;;;5.10;99.90;;;;;;5005401;28;20757;-74
2024/02/21 05:07:56;;;;;;;5.82;1.65;;;5.10;99.90;;;;;;5006613;28;20671;-75
2024/02/21 05:10:22;;;;;;;3.75;2.17;;;5.10;99.90;;;;;;5005227;28;20206;-75
2024/02/21 05:12:49;;;;;;;2.83;2.10;;;5.00;99.90;;;;;;5005325;28;20216;-75
2024/02/21 05:15:17;;;;;;;2.75;1.42;;;5.00;99.90;;;;;;5004884;28;20229;-75
2024/02/21 05:17:44;;;;;;;2.90;1.85;;;4.90;99.90;;;;;;5003698;28;20562;-75
2024/02/21 05:20:11;;;;;;;4.80;2.10;;;4.90;99.90;;;;;;5004046;28;20461;-73
2024/02/21 05:22:38;;;;;;;3.65;2.05;;;5.00;99.90;;;;;;5009449;28;20204;-73
2024/02/21 05:25:06;;;;;;;4.90;1.85;;;5.00;99.90;;;;;;5007028;28;20200;-74
2024/02/21 05:27:32;;;;;;;3.47;1.90;;;5.00;99.90;;;;;;5009267;28;20209;-73
2024/02/21 05:30:00;;;;;;;5.03;2.75;;;4.90;99.90;;;;;;5009949;28;20217;-73
2024/02/21 05:32:28;;;;;;;3.20;1.58;;;4.80;99.90;;;;;;5010806;28;20225;-74
2024/02/21 05:34:55;;;;;;;3.05;1.85;;;4.90;99.90;;;;;;5010453;28;20225;-74
2024/02/21 05:37:21;;;;;;;3.20;1.70;;;4.90;99.90;;;;;;5014553;28;20677;-73
2024/02/21 05:39:48;;;;;;;2.85;2.15;;;4.90;99.90;;;;;;5014222;28;20207;-73
2024/02/21 05:42:15;;;;;;;8.93;2.05;;;4.90;99.90;;;;;;5014705;28;20233;-73
2024/02/21 05:44:42;;;;;;;2.83;1.90;;;4.90;99.90;;;;;;5014373;28;20224;-73
2024/02/21 05:47:10;;;;;;;4.85;1.98;;;4.90;99.90;;;;;;5014575;28;20215;-73
2024/02/21 05:49:38;;;;;;;2.85;1.60;;;4.90;99.90;;;;;;5013862;28;20234;-73
2024/02/21 05:52:06;;;;;;;1.50;1.40;;;4.90;99.90;;;;;;5014324;28;20202;-73
2024/02/21 05:54:32;;;;;;;6.88;2.22;;;4.90;99.90;;;;;;5014430;28;20227;-73
2024/02/21 05:56:59;;;;;;;2.83;1.85;;;4.90;99.90;;;;;;5014018;28;20209;-73
2024/02/21 05:59:26;;;;;;;5.45;2.28;;;4.90;99.90;;;;;;5013869;28;20204;-73
2024/02/21 06:01:58;;;;;;;3.83;1.65;;;4.90;99.90;;;;;;5014122;28;20587;-73
2024/02/21 06:04:25;;;;;;;3.63;2.10;;;4.90;99.90;;;;;;5009531;28;20224;-73
2024/02/21 06:06:53;;;;;;;3.53;1.60;;;4.80;99.90;;;;;;5014067;28;20209;-73
2024/02/21 06:09:20;;;;;;;2.85;2.20;;;4.80;99.90;;;;;;5013744;28;20657;-73
2024/02/21 06:11:48;;;;;;;2.40;1.80;;;4.70;99.90;;;;;;5014159;28;20208;-73
2024/02/21 06:14:15;;;;;;;2.65;1.75;;;4.70;99.90;;;;;;5014249;28;20228;-74
2024/02/21 06:16:44;;;;;;;3.70;1.50;;;4.70;99.90;;;;;;5013872;28;20207;-73
2024/02/21 06:19:10;;;;;;;5.15;1.70;;;4.70;99.90;;;;;;5013351;28;20200;-73
2024/02/21 06:21:37;;;;;;;2.95;1.95;;;4.70;99.90;;;;;;5013929;28;20720;-73
2024/02/21 06:24:06;;;;;;;2.25;2.03;;;4.70;99.90;;;;;;5011705;28;20897;-73
2024/02/21 06:26:32;;;;;;;3.38;1.90;;;4.70;99.90;;;;;;5013926;28;20289;-73
2024/02/21 06:29:01;;;;;;;4.78;2.00;;;4.70;99.90;;;;;;5012977;28;20220;-73
2024/02/21 06:31:28;;;;;;;1.85;1.52;;;4.60;99.90;;;;;;5013916;28;20208;-73
2024/02/21 06:33:55;;;;;;;4.35;1.98;;;4.60;99.90;;;;;;5013328;28;20232;-73
2024/02/21 06:36:21;;;;;;;8.48;2.10;;;4.60;99.90;;;;;;5013656;28;20600;-73
2024/02/21 06:38:48;;;;;;;2.35;2.08;;;4.60;99.90;;;;;;5013041;28;20249;-73
2024/02/21 06:41:19;;;;;;;3.63;1.88;;;4.60;99.90;;;;;;5013760;28;20200;-73
2024/02/21 06:43:46;;;;;;;3.28;1.60;;;4.70;99.90;;;;;;5013305;28;20302;-73
2024/02/21 06:46:13;;;;;;;2.55;1.83;;;4.70;99.90;;;;;;5012965;28;20209;-73
2024/02/21 06:48:40;;;;;;;8.68;1.98;;;4.70;99.90;;;;;;5012905;28;20206;-73
2024/02/21 06:51:06;;;;;;;3.15;2.10;;;4.70;99.90;;;;;;5013240;28;20228;-73
2024/02/21 06:53:33;;;;;;;5.30;1.95;;;4.80;99.90;;;;;;5013464;28;20226;-73
2024/02/21 06:56:00;;;;;;;5.72;1.92;;;4.80;99.90;;;;;;5012956;28;20608;-73
2024/02/21 06:58:28;;;;;;;3.20;1.80;;;4.80;99.90;;;;;;5013031;28;20212;-73
2024/02/21 07:00:54;;;;;;;3.30;1.40;;;4.90;99.90;;;;;;5012997;28;20208;-73
2024/02/21 07:03:21;;;;;;;1.60;1.50;;;4.90;99.90;;;;;;5013272;28;20223;-73
2024/02/21 07:05:48;;;;;;;4.65;1.50;;;5.00;99.90;;;;;;5012846;28;20236;-73
2024/02/21 07:08:14;;;;;;;2.60;1.83;;;5.10;99.90;;;;;;5012417;28;20210;-73
2024/02/21 07:10:41;;;;;;;2.50;2.08;;;5.20;99.90;;;;;;5013084;28;20208;-73
2024/02/21 07:13:08;;;;;;;2.70;2.08;;;5.20;99.90;;;;;;5012786;28;20609;-73
2024/02/21 07:15:37;;;;;;;3.03;1.73;;;5.30;99.90;;;;;;5012990;28;20574;-74
2024/02/21 07:18:04;;;;;;;1.50;1.40;;;5.30;99.90;;;;;;5012166;28;20217;-73
2024/02/21 07:20:33;;;;;;;6.97;1.88;;;5.40;99.90;;;;;;5013000;28;20204;-73
2024/02/21 07:23:00;;;;;;;1.90;1.55;;;5.50;99.90;;;;;;5012544;28;20232;-73
2024/02/21 07:25:26;;;;;;;1.77;1.50;;;5.70;99.90;;;;;;5013176;28;20207;-74
2024/02/21 07:27:53;;;;;;;1.92;1.27;;;5.70;99.90;;;;;;5012104;28;20206;-73
2024/02/21 07:30:20;;;;;;;1.80;1.40;;;5.80;99.90;;;;;;5012808;28;20595;-73
2024/02/21 07:32:50;;;;;;;1.75;1.45;;;6.00;99.90;;;;;;5012551;28;20207;-73
2024/02/21 07:35:17;;;;;;;3.83;2.10;;;6.50;99.90;;;;;;5012519;28;20241;-74
2024/02/21 07:37:44;;;;;;;5.53;1.90;;;6.90;99.90;;;;;;5012217;28;20210;-73
2024/02/21 07:40:14;;;;;;;1.60;1.50;;;7.40;99.90;;;;;;5012639;28;20213;-74
2024/02/21 07:42:40;;;;;;;2.03;1.45;;;7.90;99.90;;;;;;5012851;28;20207;-73
2024/02/21 07:45:08;;;;;;;2.70;1.45;;;8.00;99.90;;;;;;5012431;28;20480;-73
2024/02/21 07:47:35;;;;;;;2.85;1.70;;;7.90;99.90;;;;;;5011978;28;20290;-73
2024/02/21 07:50:03;;;;;;;2.88;1.85;;;8.10;99.90;;;;;;5010213;28;20210;-73
2024/02/21 07:52:30;;;;;;;4.30;1.77;;;8.10;99.90;;;;;;5011948;28;20233;-72
2024/02/21 07:54:57;;;;;;;2.00;1.80;;;8.20;99.90;;;;;;5012290;28;20227;-73
2024/02/21 07:57:23;;;;;;;2.58;1.83;;;8.30;99.90;;;;;;5005177;28;20209;-73
2024/02/21 07:59:50;;;;;;;1.77;1.33;;;8.30;99.90;;;;;;5011593;28;20226;-72
2024/02/21 08:02:17;;;;;;;3.85;1.90;;;8.40;99.90;;;;;;5013908;28;20594;-73
2024/02/21 08:04:44;;;;;;;2.90;2.10;;;8.60;99.90;;;;;;5012133;28;20226;-73
2024/02/21 08:07:12;;;;;;;2.58;2.10;;;8.70;99.90;;;;;;5011785;28;20211;-72
2024/02/21 08:09:40;;;;;;;2.67;2.20;;;9.00;99.90;;;;;;5011744;28;20207;-72
2024/02/21 08:12:08;;;;;;;2.72;1.95;;;8.80;99.90;;;;;;5011648;28;20582;-72
2024/02/21 08:14:34;;;;;;;2.25;2.00;;;8.80;99.90;;;;;;5011821;28;20715;-73
2024/02/21 08:17:01;;;;;;;4.40;2.75;;;8.60;99.90;;;;;;5011622;28;20214;-72
2024/02/21 08:19:28;;;;;;;2.05;1.83;;;8.30;99.90;;;;;;5011395;28;20209;-72
2024/02/21 08:21:54;;;;;;;4.90;2.22;;;8.20;99.90;;;;;;5011609;28;20214;-72
2024/02/21 08:24:23;;;;;;;2.05;1.60;;;8.20;99.90;;;;;;5011505;28;20222;-73
2024/02/21 08:26:50;;;;;;;3.85;1.45;;;8.50;99.90;;;;;;5011982;28;20234;-72
2024/02/21 08:29:16;;;;;;;3.50;1.80;;;8.70;99.90;;;;;;5011238;28;20199;-72
2024/02/21 08:31:43;;;;;;;4.15;1.92;;;9.00;99.90;;;;;;5012086;28;20206;-73
2024/02/21 08:34:10;;;;;;;4.53;3.10;;;9.20;99.90;;;;;;5011251;28;20226;-72
2024/02/21 08:36:37;;;;;;;2.95;1.55;;;9.60;99.90;;;;;;5011459;28;20220;-72
2024/02/21 08:39:04;;;;;;;3.45;2.30;;;10.20;99.90;;;;;;5010664;28;20215;-72
2024/02/21 08:41:33;;;;;;;3.20;1.60;;;10.60;99.90;;;;;;5011697;28;20203;-72
2024/02/21 08:44:00;;;;;;;3.72;2.42;;;10.40;99.90;;;;;;5011122;28;20234;-72
2024/02/21 08:46:27;;;;;;;2.92;2.00;;;10.40;99.90;;;;;;5011664;28;20224;-73
2024/02/21 08:48:55;;;;;;;1.77;1.60;;;10.00;99.90;;;;;;5010522;28;20225;-72
2024/02/21 08:51:22;;;;;;;2.05;1.80;;;9.80;99.90;;;;;;5011072;28;20676;-72
2024/02/21 08:53:49;;;;;;;3.10;1.73;;;9.80;99.90;;;;;;5011306;28;20256;-72
2024/02/21 08:56:16;;;;;;;2.70;1.60;;;9.80;99.90;;;;;;5011136;28;20724;-72
2024/02/21 08:58:43;;;;;;;2.47;1.30;;;9.50;99.90;;;;;;5010788;28;20619;-73
2024/02/21 09:01:10;;;;;;;1.73;1.50;;;9.30;99.90;;;;;;5010813;28;20206;-72
2024/02/21 09:03:37;;;;;;;3.03;1.85;;;8.90;99.90;;;;;;5011211;28;20274;-72
2024/02/21 09:06:05;;;;;;;3.85;2.03;;;8.80;99.90;;;;;;5010936;28;20207;-72
2024/02/21 09:08:32;;;;;;;1.88;1.70;;;8.90;99.90;;;;;;5011436;28;20672;-72
2024/02/21 09:10:59;;;;;;;5.53;1.67;;;8.90;99.90;;;;;;5010940;28;20211;-72
2024/02/21 09:13:25;;;;;;;1.88;1.50;;;8.90;99.90;;;;;;5011154;28;20229;-72
2024/02/21 09:15:54;;;;;;;2.20;1.60;;;9.10;99.90;;;;;;5011104;28;20278;-72
2024/02/21 09:18:20;;;;;;;2.05;1.40;;;9.40;99.90;;;;;;5010211;28;20212;-73
2024/02/21 09:20:47;;;;;;;1.58;1.48;;;9.60;99.90;;;;;;5011058;28;20260;-72
2024/02/21 09:23:14;;;;;;;3.40;1.50;;;9.60;99.90;;;;;;5010825;28;20231;-73
2024/02/21 09:25:41;;;;;;;3.70;1.60;;;9.70;99.90;;;;;;5011131;28;20212;-72
2024/02/21 09:28:08;;;;;;;2.80;1.52;;;9.80;99.90;;;;;;5010149;28;20684;-73
2024/02/21 09:30:35;;;;;;;5.03;1.45;;;9.70;99.90;;;;;;5010983;28;20215;-72
2024/02/21 09:33:04;;;;;;;6.28;1.70;;;9.90;99.90;;;;;;5010603;28;20230;-72
2024/02/21 09:35:33;;;;;;;2.40;1.45;;;10.20;99.90;;;;;;5010908;28;20231;-72
2024/02/21 09:38:00;;;;;;;1.55;1.45;;;10.70;99.90;;;;;;5010116;28;20218;-73
2024/02/21 09:40:27;;;;;;;4.30;2.13;;;11.50;99.90;;;;;;5010897;28;20208;-73
2024/02/21 09:43:06;;;;;;;2.08;1.88;;;12.30;99.90;;;;;;5010800;28;20772;-72
2024/02/21 09:45:34;;;;;;;5.30;1.35;;;12.30;99.90;;;;;;5011032;28;20264;-73
2024/02/21 09:48:23;;;;;;;2.38;1.48;;;12.20;99.90;;;;;;5010077;28;20217;-73
2024/02/21 09:50:51;;;;;;;3.50;1.70;;;12.80;99.90;;;;;;5010790;28;20380;-73
2024/02/21 09:53:19;;;;;;;3.78;1.73;;;13.50;99.90;;;;;;5010095;28;20639;-73
2024/02/21 09:55:47;;;;;;;2.67;1.85;;;14.00;99.90;;;;;;5010709;28;20238;-72
2024/02/21 09:58:14;;;;;;;2.67;1.65;;;14.00;99.90;;;;;;5009989;28;20672;-72
2024/02/21 10:00:40;;;;;;;7.22;2.03;;;13.60;99.90;;;;;;5010546;28;20683;-72
2024/02/21 10:03:09;;;;;;;4.35;1.35;;;13.00;99.90;;;;;;5010010;28;20234;-73
2024/02/21 10:05:37;;;;;;;2.38;1.58;;;12.50;99.90;;;;;;5010544;28;20762;-73
2024/02/21 10:08:04;;;;;;;4.75;2.05;;;12.20;99.90;;;;;;5009912;28;20219;-73
2024/02/21 10:10:31;;;;;;;1.75;1.60;;;12.00;99.90;;;;;;5010591;28;20202;-73
2024/02/21 10:12:58;;;;;;;2.95;1.42;;;12.20;99.90;;;;;;5010395;28;20226;-73
2024/02/21 10:15:25;;;;;;;3.22;1.75;;;12.40;99.90;;;;;;5010143;28;20226;-73
2024/02/21 10:18:01;;;;;;;4.00;1.60;;;12.70;99.90;;;;;;5009933;28;20710;-73
2024/02/21 10:20:29;;;;;;;2.00;1.38;;;13.10;99.90;;;;;;5002824;28;20205;-73
2024/02/21 10:23:02;;;;;;;1.50;1.30;;;13.90;99.90;;;;;;5012592;28;20226;-73
2024/02/21 10:25:29;;;;;;;2.07;1.87;;;14.30;99.80;;;;;;5006740;28;20727;-73
2024/02/21 10:27:56;;;;;;;1.70;1.40;;;13.90;99.20;;;;;;5013700;28;20537;-73
2024/02/21 10:30:23;;;;;;;3.03;1.60;;;13.90;99.40;;;;;;5013398;28;20454;-73
2024/02/21 10:32:51;;;;;;;1.33;1.20;;;13.50;99.40;;;;;;5013730;28;20222;-73
2024/02/21 10:35:27;;;;;;;2.10;1.33;;;13.50;99.50;;;;;;5013311;28;20539;-73
2024/02/21 10:37:56;;;;;;;2.30;1.50;;;13.90;99.70;;;;;;5013529;28;20214;-73
2024/02/21 10:40:24;;;;;;;2.17;1.40;;;13.70;99.20;;;;;;5013231;28;20253;-74
2024/02/21 10:42:56;;;;;;;3.00;1.37;;;13.10;99.40;;;;;;5013666;28;20229;-73
2024/02/21 10:45:28;;;;;;;1.58;1.48;;;13.00;99.90;;;;;;5013591;28;20853;-74
2024/02/21 10:48:00;;;;;;;3.88;2.33;;;13.00;99.90;;;;;;5013170;28;20207;-73
2024/02/21 10:50:32;;;;;;;1.85;1.40;;;12.90;99.90;;;;;;5013115;28;20222;-74
2024/02/21 10:53:10;;;;;;;1.23;1.13;;;12.90;99.90;;;;;;5013402;28;20227;-73
2024/02/21 10:55:41;;;;;;;2.65;1.65;;;12.80;99.90;;;;;;5013681;28;20500;-73
2024/02/21 10:58:10;;;;;;;4.95;1.52;;;12.50;99.90;;;;;;5012820;28;20210;-73
2024/02/21 11:00:38;;;;;;;1.70;1.35;;;12.40;99.90;;;;;;5013410;28;20211;-74
2024/02/21 11:03:06;;;;;;;1.50;1.33;;;12.30;99.90;;;;;;5013195;28;20246;-73
2024/02/21 11:05:34;;;;;;;2.35;1.45;;;12.40;99.90;;;;;;5013037;28;20203;-74
2024/02/21 11:08:04;;;;;;;4.45;1.52;;;12.80;99.90;;;;;;5012835;28;20207;-74
2024/02/21 11:10:31;;;;;;;4.20;1.47;;;12.80;99.90;;;;;;5012829;28;20211;-73
2024/02/21 11:13:07;;;;;;;2.53;1.45;;;12.60;99.60;;;;;;5012801;28;20485;-73
2024/02/21 11:15:34;;;;;;;2.50;1.25;;;12.40;99.90;;;;;;5006295;28;20210;-73
2024/02/21 11:18:02;;;;;;;2.10;1.63;;;12.40;99.90;;;;;;5012434;28;20210;-73
2024/02/21 11:20:35;;;;;;;4.25;1.67;;;12.60;99.50;;;;;;5012822;28;20205;-74
2024/02/21 11:23:03;;;;;;;4.20;1.60;;;12.70;99.40;;;;;;5012756;28;20226;-74
2024/02/21 11:25:33;;;;;;;2.03;1.30;;;12.90;98.50;;;;;;5012572;28;20211;-74
2024/02/21 11:28:04;;;;;;;2.90;1.20;;;13.10;98.80;;;;;;5012212;28;20461;-73
2024/02/21 11:30:32;;;;;;;5.75;1.30;;;13.20;98.40;;;;;;5012326;28;20519;-73
2024/02/21 11:33:03;;;;;;;2.27;1.40;;;12.90;98.20;;;;;;5012126;28;20230;-73
2024/02/21 11:35:34;;;;;;;1.97;1.40;;;12.70;98.30;;;;;;5012453;28;20555;-74
2024/02/21 11:38:15;;;;;;;1.85;1.35;;;12.70;98.70;;;;;;5012203;28;20461;-74
2024/02/21 11:40:42;;;;;;;2.20;1.50;;;13.10;98.60;;;;;;5015034;28;20209;-74
2024/02/21 11:43:09;;;;;;;2.20;1.37;;;13.60;98.60;;;;;;5012392;28;20223;-74
2024/02/21 11:45:36;;;;;;;2.40;1.40;;;13.60;97.30;;;;;;5012381;28;20836;-74
2024/02/21 11:48:05;;;;;;;1.48;1.00;;;13.60;97.60;;;;;;5011847;28;20465;-74
2024/02/21 11:50:32;;;;;;;1.17;1.07;;;13.40;96.70;;;;;;5011937;28;20207;-74
2024/02/21 11:52:59;;;;;;;4.80;1.15;;;13.00;97.20;;;;;;5012730;28;20488;-74
2024/02/21 11:55:27;;;;;;;1.60;1.08;;;12.50;97.40;;;;;;5010978;28;20276;-74
2024/02/21 11:57:53;;;;;;;1.70;1.25;;;12.10;97.70;;;;;;5005469;28;20218;-74
2024/02/21 12:00:21;;;;;;;3.75;1.75;;;12.00;98.30;;;;;;5011689;28;20681;-74
2024/02/21 12:02:48;;;;;;;1.10;1.00;;;12.10;98.90;;;;;;5012145;28;20210;-74
2024/02/21 12:05:15;;;;;;;2.08;1.40;;;12.00;98.40;;;;;;5011839;28;20704;-74
2024/02/21 12:07:42;;;;;;;2.08;1.15;;;12.00;97.70;;;;;;5011723;28;20256;-74
2024/02/21 12:10:11;;;;;;;2.40;1.40;;;12.20;97.80;;;;;;5012254;28;20646;-73
2024/02/21 12:12:39;;;;;;;1.90;1.10;;;12.40;96.90;;;;;;5005640;28;20210;-74
2024/02/21 12:15:07;;;;;;;1.83;1.35;;;12.80;96.70;;;;;;5011875;28;20226;-74
2024/02/21 12:17:34;;;;;;;1.15;1.05;;;13.10;95.90;;;;;;5011150;28;20231;-74
2024/02/21 12:20:02;;;;;;;1.25;1.10;;;13.20;95.40;;;;;;5011960;28;20284;-74
2024/02/21 12:22:32;;;;;;;1.40;1.30;;;13.30;95.60;;;;;;5011494;28;20686;-74
2024/02/21 12:24:58;;;;;;;1.70;1.40;;;13.30;94.90;;;;;;5011775;28;20481;-74
2024/02/21 12:27:26;;;;;;;1.67;1.20;;;13.50;95.30;;;;;;5011630;28;20461;-74
2024/02/21 12:29:54;;;;;;;2.63;1.70;;;13.50;95.00;;;;;;5011609;28;20990;-74
2024/02/21 12:32:21;;;;;;;1.50;1.20;;;14.00;95.00;;;;;;5011314;28;20472;-74
2024/02/21 12:34:48;;;;;;;1.30;1.00;;;14.40;95.80;;;;;;5012060;28;20485;-75
2024/02/21 12:37:15;;;;;;;1.63;1.17;;;14.60;94.40;;;;;;5011706;28;20576;-74
2024/02/21 12:39:42;;;;;;;1.50;1.17;;;14.50;94.50;;;;;;5011431;28;20473;-74
2024/02/21 12:42:11;;;;;;;2.20;1.53;;;14.00;94.80;;;;;;5011428;28;20848;-74
2024/02/21 12:44:38;;;;;;;2.03;1.30;;;13.50;95.10;;;;;;5010749;28;20934;-74
2024/02/21 12:47:06;;;;;;;1.80;1.20;;;13.70;95.70;;;;;;5011513;28;20464;-74
2024/02/21 12:49:33;;;;;;;1.93;1.10;;;13.70;94.70;;;;;;5010705;28;20466;-74
2024/02/21 12:51:59;;;;;;;1.20;1.00;;;13.50;94.80;;;;;;5011374;28;20519;-74
2024/02/21 12:54:26;;;;;;;1.67;1.40;;;13.00;94.90;;;;;;5011184;28;20861;-74
2024/02/21 12:56:53;;;;;;;1.45;1.35;;;12.90;94.90;;;;;;5011465;28;20485;-73